Latest Coastal Weather Observations for Pirlangimpi (Garden Point)

IDD60701

Issued at 6:11 pm CST Monday 4 March 2024 (issued every 10 minutes, with the page automatically refreshed every 10 minutes)

About coastal observations | Map of coastal stations | Coastal observations for NT | Marine services | Other Formats
Station Details ID: 014142 Name: PIRLANGIMPI AIRPORT Lat: -11.40 Lon: 130.42 Height: 18.3 m
Data from the previous 72 hours. | See also: Recent months at Pirlangimpi (Garden Point)
Date/Time
CST
Wind Sea
Height
m
Swell Vis
km
Cloud Weather Temp
°C
Press
MSL
hPa
Rain since
9am
mm
Dir  Spd
kts
Gust
kts
Height
m
Period
s
Dir
04/06:00pm CALM 0 1 - - - - - - - 27.8 1007.5 10.4
04/05:30pm CALM 0 0 - - - - - - - 27.4 1007.7 10.4
04/05:00pm NNE 1 2 - - - - - - - 26.5 1007.6 10.4
04/04:30pm NNE 1 3 - - - - - - - 26.1 1007.8 10.4
04/04:00pm SE 3 5 - - - - - - - 25.6 1008.3 9.6
04/03:30pm S 8 12 - - - - - - - 25.7 1008.8 5.0
04/03:00pm SSW 7 16 - - - - - - - 28.4 1008.6 0.0
04/02:30pm W 1 3 - - - - - - - 30.2 1008.4 0.0
04/02:00pm NW 1 3 - - - - - - - 31.0 1008.4 0.0
04/01:30pm NW 4 6 - - - - - - - 31.6 1008.9 0.0
04/01:00pm NW 4 8 - - - - - - - 31.3 1009.3 0.0
04/12:30pm WNW 4 10 - - - - - - - 32.1 1009.9 0.0
04/12:00pm SSW 2 3 - - - - - - - 32.9 1010.5 0.0
04/11:30am E 1 3 - - - - - - - 33.0 1010.8 0.0
04/11:00am CALM 0 0 - - - - - - - 31.8 1011.2 0.0
04/10:30am SSW 2 3 - - - - - - - 31.0 1011.3 0.0
04/10:00am SW 2 3 - - - - - - - 30.2 1011.2 0.0
04/09:30am SSW 2 3 - - - - - - - 30.1 1011.3 0.0
04/09:00am S 2 3 - - - - - - - 28.9 1011.4 0.2
04/08:30am SE 2 3 - - - - - - - 27.8 1011.2 0.2
04/08:00am S 3 5 - - - - - - - 27.1 1010.7 0.2
04/07:30am S 6 8 - - - - - - - 26.9 1010.4 0.2
04/07:00am SSE 2 6 - - - - - - - 26.7 1010.4 0.2
04/06:30am CALM 0 0 - - - - - - - 26.4 1010.0 0.2
04/06:00am CALM 0 0 - - - - - - - 26.4 1009.9 0.2
04/05:30am CALM 0 0 - - - - - - - 26.3 1009.6 0.2
04/05:00am CALM 0 0 - - - - - - - 26.3 1009.4 0.2
04/04:30am CALM 0 0 - - - - - - - 26.3 1009.3 0.2
04/04:00am CALM 0 0 - - - - - - - 26.4 1009.3 0.2
04/03:30am CALM 0 0 - - - - - - - 26.4 1009.4 0.2
04/03:00am CALM 0 0 - - - - - - - 26.3 1009.3 0.2
04/02:30am CALM 0 0 - - - - - - - 26.2 1009.5 0.2
04/02:00am CALM 0 0 - - - - - - - 26.2 1009.7 0.2
04/01:30am CALM 0 0 - - - - - - - 26.1 1010.0 0.2
04/01:00am CALM 0 0 - - - - - - - 26.2 1010.2 0.2
04/12:30am CALM 0 0 - - - - - - - 26.4 1010.5 0.2
04/12:00am CALM 0 0 - - - - - - - 26.5 1010.8 0.2
 
Date/Time
CST
Wind Sea
Height
m
Swell Vis
km
Cloud Weather Temp
°C
Press
MSL
hPa
Rain since
9am
mm
Dir  Spd
kts
Gust
kts
Height
m
Period
s
Dir
03/11:30pm CALM 0 0 - - - - - - - 26.6 1011.0 0.2
03/11:00pm ESE 2 3 - - - - - - - 26.9 1011.1 0.2
03/10:30pm SE 2 2 - - - - - - - 26.8 1010.9 0.2
03/10:00pm SSE 1 2 - - - - - - - 26.8 1010.6 0.2
03/09:30pm CALM 0 0 - - - - - - - 26.7 1010.3 0.2
03/09:00pm ESE 1 2 - - - - - - - 26.8 1010.2 0.2
03/08:30pm SE 2 3 - - - - - - - 26.8 1009.9 0.2
03/08:00pm CALM 0 1 - - - - - - - 27.0 1009.5 0.2
03/07:30pm CALM 0 0 - - - - - - - 27.1 1009.2 0.2
03/07:00pm SE 2 3 - - - - - - - 27.3 1008.9 0.2
03/06:30pm SSE 2 3 - - - - - - - 27.4 1008.9 0.2
03/06:00pm SSE 3 4 - - - - - - - 27.6 1008.9 0.0
03/05:30pm ESE 2 3 - - - - - - - 28.2 1008.5 0.0
03/05:00pm ESE 3 5 - - - - - - - 28.4 1008.2 0.0
03/04:30pm S 3 4 - - - - - - - 29.2 1008.2 0.0
03/04:00pm SW 3 5 - - - - - - - 30.0 1008.6 0.0
03/03:30pm NW 2 3 - - - - - - - 31.3 1007.9 0.0
03/03:00pm NW 5 10 - - - - - - - 33.8 1008.1 0.0
03/02:30pm NNW 5 11 - - - - - - - 33.2 1008.6 0.0
03/02:00pm NW 4 7 - - - - - - - 33.3 1008.7 0.0
03/01:30pm NW 4 10 - - - - - - - 33.0 1009.3 0.0
03/01:00pm NW 5 8 - - - - - - - 33.3 1010.0 0.0
03/12:30pm WNW 4 6 - - - - - - - 33.4 1010.3 0.0
03/12:00pm WNW 3 6 - - - - - - - 33.2 1010.6 0.0
03/11:30am NW 5 8 - - - - - - - 32.2 1011.0 0.0
03/11:00am NW 3 6 - - - - - - - 31.6 1011.3 0.0
03/10:30am WNW 2 5 - - - - - - - 32.0 1011.4 0.0
03/10:00am NW 1 3 - - - - - - - 30.9 1011.6 0.0
03/09:30am W 2 3 - - - - - - - 30.4 1011.4 0.0
03/09:00am CALM 0 0 - - - - - - - 29.5 1011.3 0.0
03/08:30am CALM 0 0 - - - - - - - 27.6 1011.0 0.0
03/08:00am CALM 0 0 - - - - - - - 27.1 1010.5 0.0
03/07:30am CALM 0 0 - - - - - - - 26.6 1010.3 0.0
03/07:00am CALM 0 0 - - - - - - - 26.3 1009.9 0.0
03/06:30am CALM 0 0 - - - - - - - 26.3 1009.9 0.0
03/06:00am CALM 0 0 - - - - - - - 26.4 1010.0 0.0
03/05:30am CALM 0 0 - - - - - - - 26.6 1009.9 0.0
03/05:00am CALM 0 0 - - - - - - - 26.8 1009.6 0.0
03/04:30am CALM 0 0 - - - - - - - 26.8 1009.4 0.0
03/04:00am CALM 0 0 - - - - - - - 26.8 1009.2 0.0
03/03:30am CALM 0 0 - - - - - - - 26.9 1009.6 0.0
03/03:00am CALM 0 0 - - - - - - - 26.9 1009.6 0.0
03/02:30am CALM 0 0 - - - - - - - 26.8 1010.0 0.0
03/02:00am CALM 0 0 - - - - - - - 26.8 1010.3 0.0
03/01:30am CALM 0 0 - - - - - - - 26.8 1010.5 0.0
03/01:00am CALM 0 0 - - - - - - - 26.9 1010.7 0.0
03/12:30am ENE 1 2 - - - - - - - 27.0 1010.7 0.0
03/12:00am CALM 0 0 - - - - - - - 27.1 1011.0 0.0
 
Date/Time
CST
Wind Sea
Height
m
Swell Vis
km
Cloud Weather Temp
°C
Press
MSL
hPa
Rain since
9am
mm
Dir  Spd
kts
Gust
kts
Height
m
Period
s
Dir
02/11:30pm CALM 0 0 - - - - - - - 27.3 1010.9 0.0
02/11:00pm CALM 0 0 - - - - - - - 27.3 1011.0 0.0
02/10:30pm CALM 0 0 - - - - - - - 27.2 1011.0 0.0
02/10:00pm CALM 0 0 - - - - - - - 27.3 1010.7 0.0
02/09:30pm ESE 1 2 - - - - - - - 27.7 1010.5 0.0
02/09:00pm CALM 0 1 - - - - - - - 27.9 1010.2 0.0
02/08:30pm CALM 0 0 - - - - - - - 28.1 1009.8 0.0
02/08:00pm CALM 0 0 - - - - - - - 28.0 1009.2 0.0
02/07:30pm CALM 0 1 - - - - - - - 28.4 1008.8 0.0
02/07:00pm NNW 1 3 - - - - - - - 29.4 1008.4 0.0
02/06:30pm NW 1 3 - - - - - - - 30.2 1008.1 0.0
02/06:00pm NNW 2 5 - - - - - - - 30.6 1007.5 0.0
02/05:30pm NNW 3 7 - - - - - - - 30.9 1007.4 0.0
02/05:00pm NNW 4 8 - - - - - - - 31.3 1007.5 0.0
02/04:30pm NW 4 7 - - - - - - - 31.1 1007.4 0.0
02/04:00pm NW 3 8 - - - - - - - 31.6 1007.4 0.0
02/03:30pm NW 5 10 - - - - - - - 32.4 1007.4 0.0
02/03:00pm NW 6 11 - - - - - - - 32.7 1007.6 0.0
02/02:30pm NW 5 9 - - - - - - - 33.0 1007.8 0.0
02/02:00pm NW 5 10 - - - - - - - 33.6 1008.0 0.0
02/01:30pm NW 4 7 - - - - - - - 33.2 1008.6 0.0
02/01:00pm NW 5 11 - - - - - - - 32.6 1009.2 0.0
02/12:30pm NNW 4 8 - - - - - - - 33.2 1009.7 0.0
02/12:00pm NW 3 9 - - - - - - - 31.2 1010.3 0.0
02/11:30am NW 4 8 - - - - - - - 32.6 1010.3 0.0
02/11:00am WNW 3 6 - - - - - - - 31.6 1010.3 0.0
02/10:30am WNW 3 5 - - - - - - - 31.0 1010.4 0.0
02/10:00am WNW 3 6 - - - - - - - 30.4 1010.6 0.0
02/09:30am NW 3 7 - - - - - - - 30.4 1010.6 0.0
02/09:00am W 2 4 - - - - - - - 29.3 1010.5 0.0
02/08:30am NW 2 5 - - - - - - - 28.0 1010.4 0.0
02/08:00am NNE 2 3 - - - - - - - 26.6 1010.2 0.0
02/07:30am NE 2 3 - - - - - - - 26.3 1009.9 0.0
02/07:00am NNE 1 2 - - - - - - - 26.1 1009.6 0.0
02/06:30am NE 1 3 - - - - - - - 26.0 1009.3 0.0
02/06:00am NE 2 4 - - - - - - - 26.0 1008.8 0.0
02/05:30am CALM 0 0 - - - - - - - 26.0 1008.6 0.0
02/05:00am NE 1 2 - - - - - - - 26.1 1008.2 0.0
02/04:30am ENE 1 1 - - - - - - - 26.2 1008.1 0.0
02/04:00am CALM 0 0 - - - - - - - 26.3 1007.9 0.0
02/03:30am CALM 0 0 - - - - - - - 26.3 1007.9 0.0
02/03:00am NE 1 1 - - - - - - - 26.6 1008.2 0.0
02/02:30am CALM 0 1 - - - - - - - 26.9 1008.4 0.0
02/02:00am NNW 1 2 - - - - - - - 26.6 1008.4 0.0
02/01:30am N 1 2 - - - - - - - 26.7 1008.8 0.0
02/01:00am N 2 4 - - - - - - - 26.6 1009.2 0.0
02/12:30am N 1 1 - - - - - - - 26.6 1009.4 0.0
02/12:00am CALM 0 0 - - - - - - - 26.7 1009.8 0.0
 
Date/Time
CST
Wind Sea
Height
m
Swell Vis
km
Cloud Weather Temp
°C
Press
MSL
hPa
Rain since
9am
mm
Dir  Spd
kts
Gust
kts
Height
m
Period
s
Dir
01/11:30pm CALM 0 0 - - - - - - - 26.8 1010.2 0.0
01/11:00pm CALM 0 0 - - - - - - - 26.9 1010.1 0.0
01/10:30pm CALM 0 0 - - - - - - - 26.8 1009.7 0.0
01/10:00pm NE 1 2 - - - - - - - 26.9 1009.5 0.0
01/09:30pm CALM 0 0 - - - - - - - 27.1 1009.3 0.0
01/09:00pm CALM 0 0 - - - - - - - 27.3 1009.0 0.0
01/08:30pm N 1 2 - - - - - - - 27.8 1008.4 0.0
01/08:00pm CALM 0 1 - - - - - - - 28.3 1008.2 0.0
01/07:30pm NNW 1 3 - - - - - - - 28.7 1007.8 0.0
01/07:00pm NNW 3 6 - - - - - - - 29.4 1007.5 0.0
01/06:30pm NNW 3 7 - - - - - - - 29.9 1007.0 0.0

Other formats

Comma delimited format used in spreadsheet applications
http://www.bom.gov.au/fwo/IDD60701/IDD60701.94119.axf

JavaScript Object Notation format (JSON) in row-major order
http://www.bom.gov.au/fwo/IDD60701/IDD60701.94119.json

Data quality

Most of these data are generated automatically and are frequently updated. Quality checks on data are not normally performed. It is possible for incorrect values to appear. Refer to information at About Latest Weather Observations and please check the disclaimer before using these data.